sensor_id;sensor_type;location;lat;lon;timestamp;P1;durP1;ratioP1;P2;durP2;ratioP2
79052;SDS011;68451;49.510;6.026;2023-05-02T00:00:07;31.83;;;23.27;;
79052;SDS011;68451;49.510;6.026;2023-05-02T00:02:33;28.17;;;21.97;;
79052;SDS011;68451;49.510;6.026;2023-05-02T00:04:59;31.73;;;22.57;;
79052;SDS011;68451;49.510;6.026;2023-05-02T00:07:26;34.87;;;23.43;;
79052;SDS011;68451;49.510;6.026;2023-05-02T00:09:52;34.83;;;22.93;;
79052;SDS011;68451;49.510;6.026;2023-05-02T00:12:18;31.37;;;23.27;;
79052;SDS011;68451;49.510;6.026;2023-05-02T00:14:43;33.93;;;22.80;;
79052;SDS011;68451;49.510;6.026;2023-05-02T00:17:15;30.30;;;22.60;;
79052;SDS011;68451;49.510;6.026;2023-05-02T00:22:06;31.90;;;20.27;;
79052;SDS011;68451;49.510;6.026;2023-05-02T00:24:32;28.63;;;19.87;;
79052;SDS011;68451;49.510;6.026;2023-05-02T00:26:57;29.67;;;21.03;;
79052;SDS011;68451;49.510;6.026;2023-05-02T00:29:23;33.20;;;20.37;;
79052;SDS011;68451;49.510;6.026;2023-05-02T00:31:48;32.97;;;23.27;;
79052;SDS011;68451;49.510;6.026;2023-05-02T00:34:14;32.93;;;22.93;;
79052;SDS011;68451;49.510;6.026;2023-05-02T00:36:39;30.53;;;21.60;;
79052;SDS011;68451;49.510;6.026;2023-05-02T00:39:05;32.87;;;22.43;;
79052;SDS011;68451;49.510;6.026;2023-05-02T00:41:30;29.93;;;20.83;;
79052;SDS011;68451;49.510;6.026;2023-05-02T00:43:56;33.20;;;21.33;;
79052;SDS011;68451;49.510;6.026;2023-05-02T00:46:22;31.80;;;20.30;;
79052;SDS011;68451;49.510;6.026;2023-05-02T00:48:47;29.23;;;20.70;;
79052;SDS011;68451;49.510;6.026;2023-05-02T00:51:13;30.83;;;20.37;;
79052;SDS011;68451;49.510;6.026;2023-05-02T00:53:39;34.53;;;22.40;;
79052;SDS011;68451;49.510;6.026;2023-05-02T00:56:06;32.87;;;23.07;;
79052;SDS011;68451;49.510;6.026;2023-05-02T00:58:32;34.23;;;22.27;;
79052;SDS011;68451;49.510;6.026;2023-05-02T01:01:07;33.03;;;22.73;;
79052;SDS011;68451;49.510;6.026;2023-05-02T01:09:41;36.93;;;22.47;;
79052;SDS011;68451;49.510;6.026;2023-05-02T01:12:26;32.03;;;21.20;;
79052;SDS011;68451;49.510;6.026;2023-05-02T01:14:58;35.70;;;23.43;;
79052;SDS011;68451;49.510;6.026;2023-05-02T01:17:28;32.03;;;21.50;;
79052;SDS011;68451;49.510;6.026;2023-05-02T01:20:01;32.43;;;20.83;;
79052;SDS011;68451;49.510;6.026;2023-05-02T01:22:30;36.40;;;23.23;;
79052;SDS011;68451;49.510;6.026;2023-05-02T01:25:07;38.90;;;23.20;;
79052;SDS011;68451;49.510;6.026;2023-05-02T01:27:52;32.27;;;22.27;;
79052;SDS011;68451;49.510;6.026;2023-05-02T01:30:28;35.50;;;21.57;;
79052;SDS011;68451;49.510;6.026;2023-05-02T01:32:57;37.13;;;25.13;;
79052;SDS011;68451;49.510;6.026;2023-05-02T01:35:25;33.87;;;22.73;;
79052;SDS011;68451;49.510;6.026;2023-05-02T01:37:52;34.73;;;22.10;;
79052;SDS011;68451;49.510;6.026;2023-05-02T01:40:20;33.13;;;22.37;;
79052;SDS011;68451;49.510;6.026;2023-05-02T01:42:49;37.57;;;22.40;;
79052;SDS011;68451;49.510;6.026;2023-05-02T01:45:16;36.33;;;21.97;;
79052;SDS011;68451;49.510;6.026;2023-05-02T01:47:43;33.53;;;21.23;;
79052;SDS011;68451;49.510;6.026;2023-05-02T01:50:14;36.10;;;22.60;;
79052;SDS011;68451;49.510;6.026;2023-05-02T01:52:43;32.77;;;20.97;;
79052;SDS011;68451;49.510;6.026;2023-05-02T01:55:10;35.30;;;21.23;;
79052;SDS011;68451;49.510;6.026;2023-05-02T01:57:40;30.40;;;21.17;;
79052;SDS011;68451;49.510;6.026;2023-05-02T02:00:08;33.00;;;21.70;;
79052;SDS011;68451;49.510;6.026;2023-05-02T02:02:35;34.70;;;21.03;;
79052;SDS011;68451;49.510;6.026;2023-05-02T02:05:03;37.63;;;21.53;;
79052;SDS011;68451;49.510;6.026;2023-05-02T02:07:31;33.50;;;22.03;;
79052;SDS011;68451;49.510;6.026;2023-05-02T02:09:57;34.17;;;19.83;;
79052;SDS011;68451;49.510;6.026;2023-05-02T02:12:25;31.07;;;20.00;;
79052;SDS011;68451;49.510;6.026;2023-05-02T02:14:58;38.83;;;21.30;;
79052;SDS011;68451;49.510;6.026;2023-05-02T02:17:42;31.73;;;19.37;;
79052;SDS011;68451;49.510;6.026;2023-05-02T02:20:21;34.93;;;22.97;;
79052;SDS011;68451;49.510;6.026;2023-05-02T02:22:47;30.10;;;19.00;;
79052;SDS011;68451;49.510;6.026;2023-05-02T02:25:15;34.60;;;22.37;;
79052;SDS011;68451;49.510;6.026;2023-05-02T02:27:42;30.10;;;20.93;;
79052;SDS011;68451;49.510;6.026;2023-05-02T02:30:08;33.73;;;22.43;;
79052;SDS011;68451;49.510;6.026;2023-05-02T02:32:34;32.57;;;20.00;;
79052;SDS011;68451;49.510;6.026;2023-05-02T02:35:00;33.53;;;21.23;;
79052;SDS011;68451;49.510;6.026;2023-05-02T02:37:31;34.67;;;21.00;;
79052;SDS011;68451;49.510;6.026;2023-05-02T02:40:01;32.97;;;20.67;;
79052;SDS011;68451;49.510;6.026;2023-05-02T02:42:35;34.17;;;19.53;;
79052;SDS011;68451;49.510;6.026;2023-05-02T02:45:15;35.83;;;20.90;;
79052;SDS011;68451;49.510;6.026;2023-05-02T02:48:01;32.63;;;20.00;;
79052;SDS011;68451;49.510;6.026;2023-05-02T02:50:48;35.57;;;19.43;;
79052;SDS011;68451;49.510;6.026;2023-05-02T02:53:39;34.50;;;20.43;;
79052;SDS011;68451;49.510;6.026;2023-05-02T02:56:25;34.50;;;20.00;;
79052;SDS011;68451;49.510;6.026;2023-05-02T02:59:06;41.77;;;23.30;;
79052;SDS011;68451;49.510;6.026;2023-05-02T03:01:41;43.43;;;22.23;;
79052;SDS011;68451;49.510;6.026;2023-05-02T03:04:10;41.57;;;22.83;;
79052;SDS011;68451;49.510;6.026;2023-05-02T03:06:37;41.37;;;22.30;;
79052;SDS011;68451;49.510;6.026;2023-05-02T03:09:03;40.47;;;21.70;;
79052;SDS011;68451;49.510;6.026;2023-05-02T03:11:29;41.53;;;21.90;;
79052;SDS011;68451;49.510;6.026;2023-05-02T03:13:54;43.73;;;22.60;;
79052;SDS011;68451;49.510;6.026;2023-05-02T03:18:59;39.57;;;22.17;;
79052;SDS011;68451;49.510;6.026;2023-05-02T03:21:24;40.00;;;22.00;;
79052;SDS011;68451;49.510;6.026;2023-05-02T03:23:50;41.77;;;21.43;;
79052;SDS011;68451;49.510;6.026;2023-05-02T03:26:16;38.17;;;20.47;;
79052;SDS011;68451;49.510;6.026;2023-05-02T03:28:41;43.93;;;21.97;;
79052;SDS011;68451;49.510;6.026;2023-05-02T03:31:10;41.43;;;23.13;;
79052;SDS011;68451;49.510;6.026;2023-05-02T03:33:36;39.63;;;21.03;;
79052;SDS011;68451;49.510;6.026;2023-05-02T03:36:02;40.90;;;21.60;;
79052;SDS011;68451;49.510;6.026;2023-05-02T03:38:28;37.60;;;20.37;;
79052;SDS011;68451;49.510;6.026;2023-05-02T03:40:55;39.77;;;21.63;;
79052;SDS011;68451;49.510;6.026;2023-05-02T03:43:22;39.83;;;21.07;;
79052;SDS011;68451;49.510;6.026;2023-05-02T03:45:47;36.60;;;19.60;;
79052;SDS011;68451;49.510;6.026;2023-05-02T03:48:13;37.73;;;20.17;;
79052;SDS011;68451;49.510;6.026;2023-05-02T03:50:38;36.07;;;21.20;;
79052;SDS011;68451;49.510;6.026;2023-05-02T03:53:04;37.60;;;19.00;;
79052;SDS011;68451;49.510;6.026;2023-05-02T03:55:29;37.70;;;20.03;;
79052;SDS011;68451;49.510;6.026;2023-05-02T03:57:55;33.33;;;19.37;;
79052;SDS011;68451;49.510;6.026;2023-05-02T04:00:20;39.67;;;19.63;;
79052;SDS011;68451;49.510;6.026;2023-05-02T04:02:46;35.17;;;21.20;;
79052;SDS011;68451;49.510;6.026;2023-05-02T04:05:12;32.93;;;19.33;;
79052;SDS011;68451;49.510;6.026;2023-05-02T04:07:37;33.37;;;18.80;;
79052;SDS011;68451;49.510;6.026;2023-05-02T04:10:03;32.83;;;18.63;;
79052;SDS011;68451;49.510;6.026;2023-05-02T04:12:29;33.37;;;20.00;;
79052;SDS011;68451;49.510;6.026;2023-05-02T04:14:55;31.70;;;18.83;;
79052;SDS011;68451;49.510;6.026;2023-05-02T04:17:20;37.60;;;19.23;;
79052;SDS011;68451;49.510;6.026;2023-05-02T04:19:46;38.47;;;20.43;;
79052;SDS011;68451;49.510;6.026;2023-05-02T04:22:11;34.23;;;18.43;;
79052;SDS011;68451;49.510;6.026;2023-05-02T04:24:37;40.23;;;19.13;;
79052;SDS011;68451;49.510;6.026;2023-05-02T04:27:02;37.07;;;19.53;;
79052;SDS011;68451;49.510;6.026;2023-05-02T04:29:28;36.17;;;20.27;;
79052;SDS011;68451;49.510;6.026;2023-05-02T04:31:53;38.10;;;19.80;;
79052;SDS011;68451;49.510;6.026;2023-05-02T04:34:19;37.90;;;19.40;;
79052;SDS011;68451;49.510;6.026;2023-05-02T04:36:45;34.97;;;19.10;;
79052;SDS011;68451;49.510;6.026;2023-05-02T04:39:11;36.70;;;20.37;;
79052;SDS011;68451;49.510;6.026;2023-05-02T04:41:37;39.40;;;18.47;;
79052;SDS011;68451;49.510;6.026;2023-05-02T04:44:02;35.87;;;19.10;;
79052;SDS011;68451;49.510;6.026;2023-05-02T04:46:28;36.57;;;18.90;;
79052;SDS011;68451;49.510;6.026;2023-05-02T04:48:54;36.13;;;20.07;;
79052;SDS011;68451;49.510;6.026;2023-05-02T04:51:19;33.33;;;19.30;;
79052;SDS011;68451;49.510;6.026;2023-05-02T04:53:45;37.77;;;20.27;;
79052;SDS011;68451;49.510;6.026;2023-05-02T04:56:11;34.63;;;20.20;;
79052;SDS011;68451;49.510;6.026;2023-05-02T04:58:37;38.27;;;20.30;;
79052;SDS011;68451;49.510;6.026;2023-05-02T05:01:02;38.43;;;20.00;;
79052;SDS011;68451;49.510;6.026;2023-05-02T05:03:28;32.57;;;20.60;;
79052;SDS011;68451;49.510;6.026;2023-05-02T05:05:57;39.73;;;20.90;;
79052;SDS011;68451;49.510;6.026;2023-05-02T05:08:23;36.20;;;21.37;;
79052;SDS011;68451;49.510;6.026;2023-05-02T05:10:49;30.57;;;17.20;;
79052;SDS011;68451;49.510;6.026;2023-05-02T05:13:14;33.80;;;17.67;;
79052;SDS011;68451;49.510;6.026;2023-05-02T05:15:40;40.33;;;19.60;;
79052;SDS011;68451;49.510;6.026;2023-05-02T05:18:05;35.63;;;19.13;;
79052;SDS011;68451;49.510;6.026;2023-05-02T05:20:31;42.47;;;21.47;;
79052;SDS011;68451;49.510;6.026;2023-05-02T05:22:57;37.33;;;19.93;;
79052;SDS011;68451;49.510;6.026;2023-05-02T05:25:24;36.07;;;18.43;;
79052;SDS011;68451;49.510;6.026;2023-05-02T05:27:51;37.23;;;20.33;;
79052;SDS011;68451;49.510;6.026;2023-05-02T05:30:17;34.37;;;18.30;;
79052;SDS011;68451;49.510;6.026;2023-05-02T05:32:42;32.63;;;17.77;;
79052;SDS011;68451;49.510;6.026;2023-05-02T05:35:08;33.83;;;19.87;;
79052;SDS011;68451;49.510;6.026;2023-05-02T05:37:34;35.17;;;19.17;;
79052;SDS011;68451;49.510;6.026;2023-05-02T05:40:01;34.37;;;17.27;;
79052;SDS011;68451;49.510;6.026;2023-05-02T05:42:27;29.83;;;18.77;;
79052;SDS011;68451;49.510;6.026;2023-05-02T05:44:52;31.20;;;16.77;;
79052;SDS011;68451;49.510;6.026;2023-05-02T05:47:19;30.77;;;17.77;;
79052;SDS011;68451;49.510;6.026;2023-05-02T05:49:46;35.67;;;16.90;;
79052;SDS011;68451;49.510;6.026;2023-05-02T05:52:13;30.47;;;17.60;;
79052;SDS011;68451;49.510;6.026;2023-05-02T05:54:38;31.20;;;18.30;;
79052;SDS011;68451;49.510;6.026;2023-05-02T05:57:04;32.00;;;17.97;;
79052;SDS011;68451;49.510;6.026;2023-05-02T05:59:29;37.70;;;19.90;;
79052;SDS011;68451;49.510;6.026;2023-05-02T06:01:54;32.73;;;18.80;;
79052;SDS011;68451;49.510;6.026;2023-05-02T06:04:20;34.10;;;19.03;;
79052;SDS011;68451;49.510;6.026;2023-05-02T06:06:45;33.30;;;17.87;;
79052;SDS011;68451;49.510;6.026;2023-05-02T06:09:11;32.17;;;16.90;;
79052;SDS011;68451;49.510;6.026;2023-05-02T06:11:37;33.80;;;17.33;;
79052;SDS011;68451;49.510;6.026;2023-05-02T06:14:02;28.50;;;16.10;;
79052;SDS011;68451;49.510;6.026;2023-05-02T06:16:27;29.57;;;16.93;;
79052;SDS011;68451;49.510;6.026;2023-05-02T06:18:53;28.73;;;16.17;;
79052;SDS011;68451;49.510;6.026;2023-05-02T06:21:18;31.53;;;17.47;;
79052;SDS011;68451;49.510;6.026;2023-05-02T06:23:45;28.87;;;13.87;;
79052;SDS011;68451;49.510;6.026;2023-05-02T06:26:10;27.03;;;15.40;;
79052;SDS011;68451;49.510;6.026;2023-05-02T06:28:36;27.57;;;13.70;;
79052;SDS011;68451;49.510;6.026;2023-05-02T06:31:02;23.83;;;14.13;;
79052;SDS011;68451;49.510;6.026;2023-05-02T06:33:30;25.90;;;13.93;;
79052;SDS011;68451;49.510;6.026;2023-05-02T06:35:57;25.87;;;13.87;;
79052;SDS011;68451;49.510;6.026;2023-05-02T06:38:23;22.30;;;12.40;;
79052;SDS011;68451;49.510;6.026;2023-05-02T06:40:49;25.30;;;13.57;;
79052;SDS011;68451;49.510;6.026;2023-05-02T06:43:15;22.37;;;12.70;;
79052;SDS011;68451;49.510;6.026;2023-05-02T06:45:42;21.23;;;11.33;;
79052;SDS011;68451;49.510;6.026;2023-05-02T06:48:08;25.43;;;12.73;;
79052;SDS011;68451;49.510;6.026;2023-05-02T06:50:34;19.80;;;11.47;;
79052;SDS011;68451;49.510;6.026;2023-05-02T06:53:00;20.17;;;12.13;;
79052;SDS011;68451;49.510;6.026;2023-05-02T06:55:26;21.83;;;13.27;;
79052;SDS011;68451;49.510;6.026;2023-05-02T06:57:52;23.45;;;13.77;;
79052;SDS011;68451;49.510;6.026;2023-05-02T07:00:19;30.60;;;14.53;;
79052;SDS011;68451;49.510;6.026;2023-05-02T07:02:45;35.80;;;12.60;;
79052;SDS011;68451;49.510;6.026;2023-05-02T07:05:12;24.40;;;13.37;;
79052;SDS011;68451;49.510;6.026;2023-05-02T07:07:39;23.47;;;12.13;;
79052;SDS011;68451;49.510;6.026;2023-05-02T07:10:06;34.43;;;14.33;;
79052;SDS011;68451;49.510;6.026;2023-05-02T07:12:32;24.67;;;12.95;;
79052;SDS011;68451;49.510;6.026;2023-05-02T07:14:58;24.52;;;13.05;;
79052;SDS011;68451;49.510;6.026;2023-05-02T07:17:23;20.48;;;10.75;;
79052;SDS011;68451;49.510;6.026;2023-05-02T07:19:49;16.02;;;9.43;;
79052;SDS011;68451;49.510;6.026;2023-05-02T07:22:15;16.73;;;10.30;;
79052;SDS011;68451;49.510;6.026;2023-05-02T07:27:35;15.15;;;10.70;;
79052;SDS011;68451;49.510;6.026;2023-05-02T07:30:01;14.23;;;8.95;;
79052;SDS011;68451;49.510;6.026;2023-05-02T07:32:27;13.27;;;8.73;;
79052;SDS011;68451;49.510;6.026;2023-05-02T07:34:53;11.65;;;8.82;;
79052;SDS011;68451;49.510;6.026;2023-05-02T07:37:19;14.60;;;9.75;;
79052;SDS011;68451;49.510;6.026;2023-05-02T07:39:45;15.27;;;8.48;;
79052;SDS011;68451;49.510;6.026;2023-05-02T07:42:11;11.10;;;7.32;;
79052;SDS011;68451;49.510;6.026;2023-05-02T07:44:36;12.75;;;8.68;;
79052;SDS011;68451;49.510;6.026;2023-05-02T07:47:02;11.90;;;7.93;;
79052;SDS011;68451;49.510;6.026;2023-05-02T07:49:28;12.50;;;7.45;;
79052;SDS011;68451;49.510;6.026;2023-05-02T07:51:53;12.43;;;7.70;;
79052;SDS011;68451;49.510;6.026;2023-05-02T07:54:20;14.00;;;7.18;;
79052;SDS011;68451;49.510;6.026;2023-05-02T07:56:46;11.32;;;6.55;;
79052;SDS011;68451;49.510;6.026;2023-05-02T07:59:12;9.80;;;6.85;;
79052;SDS011;68451;49.510;6.026;2023-05-02T08:01:39;11.55;;;7.00;;
79052;SDS011;68451;49.510;6.026;2023-05-02T08:04:05;10.88;;;7.40;;
79052;SDS011;68451;49.510;6.026;2023-05-02T08:06:31;11.68;;;6.95;;
79052;SDS011;68451;49.510;6.026;2023-05-02T08:08:57;10.02;;;6.72;;
79052;SDS011;68451;49.510;6.026;2023-05-02T08:11:23;13.85;;;7.68;;
79052;SDS011;68451;49.510;6.026;2023-05-02T08:13:52;12.45;;;7.53;;
79052;SDS011;68451;49.510;6.026;2023-05-02T08:16:18;11.00;;;7.50;;
79052;SDS011;68451;49.510;6.026;2023-05-02T08:18:44;12.45;;;7.07;;
79052;SDS011;68451;49.510;6.026;2023-05-02T08:21:09;12.65;;;7.35;;
79052;SDS011;68451;49.510;6.026;2023-05-02T08:23:35;10.93;;;7.03;;
79052;SDS011;68451;49.510;6.026;2023-05-02T08:26:02;10.82;;;7.30;;
79052;SDS011;68451;49.510;6.026;2023-05-02T08:28:28;11.60;;;7.35;;
79052;SDS011;68451;49.510;6.026;2023-05-02T08:30:54;11.20;;;6.00;;
79052;SDS011;68451;49.510;6.026;2023-05-02T08:33:20;9.95;;;6.72;;
79052;SDS011;68451;49.510;6.026;2023-05-02T08:35:46;10.80;;;7.05;;
79052;SDS011;68451;49.510;6.026;2023-05-02T08:38:12;8.25;;;6.22;;
79052;SDS011;68451;49.510;6.026;2023-05-02T08:40:38;9.30;;;7.10;;
79052;SDS011;68451;49.510;6.026;2023-05-02T08:43:03;9.38;;;6.45;;
79052;SDS011;68451;49.510;6.026;2023-05-02T08:45:34;8.18;;;5.47;;
79052;SDS011;68451;49.510;6.026;2023-05-02T08:48:04;7.72;;;5.93;;
79052;SDS011;68451;49.510;6.026;2023-05-02T08:50:35;8.30;;;5.30;;
79052;SDS011;68451;49.510;6.026;2023-05-02T08:53:03;6.75;;;5.35;;
79052;SDS011;68451;49.510;6.026;2023-05-02T08:55:31;10.13;;;6.30;;
79052;SDS011;68451;49.510;6.026;2023-05-02T08:57:58;10.82;;;5.82;;
79052;SDS011;68451;49.510;6.026;2023-05-02T09:00:24;8.73;;;5.53;;
79052;SDS011;68451;49.510;6.026;2023-05-02T09:02:57;7.28;;;5.45;;
79052;SDS011;68451;49.510;6.026;2023-05-02T09:05:38;12.00;;;6.35;;
79052;SDS011;68451;49.510;6.026;2023-05-02T09:08:05;7.55;;;5.43;;
79052;SDS011;68451;49.510;6.026;2023-05-02T09:10:31;7.75;;;5.65;;
79052;SDS011;68451;49.510;6.026;2023-05-02T09:13:26;10.27;;;6.78;;
79052;SDS011;68451;49.510;6.026;2023-05-02T09:15:57;7.45;;;5.45;;
79052;SDS011;68451;49.510;6.026;2023-05-02T09:18:27;6.93;;;5.32;;
79052;SDS011;68451;49.510;6.026;2023-05-02T09:20:54;7.88;;;5.15;;
79052;SDS011;68451;49.510;6.026;2023-05-02T09:23:21;6.32;;;5.20;;
79052;SDS011;68451;49.510;6.026;2023-05-02T09:25:58;8.40;;;5.72;;
79052;SDS011;68451;49.510;6.026;2023-05-02T09:31:07;6.32;;;5.00;;
79052;SDS011;68451;49.510;6.026;2023-05-02T09:33:38;9.95;;;5.97;;
79052;SDS011;68451;49.510;6.026;2023-05-02T09:36:05;7.95;;;5.13;;
79052;SDS011;68451;49.510;6.026;2023-05-02T09:38:31;8.70;;;5.93;;
79052;SDS011;68451;49.510;6.026;2023-05-02T09:40:58;8.43;;;5.32;;
79052;SDS011;68451;49.510;6.026;2023-05-02T09:43:25;6.70;;;4.70;;
79052;SDS011;68451;49.510;6.026;2023-05-02T09:48:31;6.07;;;5.18;;
79052;SDS011;68451;49.510;6.026;2023-05-02T09:50:58;8.43;;;5.30;;
79052;SDS011;68451;49.510;6.026;2023-05-02T09:53:24;7.50;;;4.95;;
79052;SDS011;68451;49.510;6.026;2023-05-02T09:56:01;7.72;;;5.15;;
79052;SDS011;68451;49.510;6.026;2023-05-02T09:58:28;7.78;;;5.00;;
79052;SDS011;68451;49.510;6.026;2023-05-02T10:00:55;9.15;;;5.00;;
79052;SDS011;68451;49.510;6.026;2023-05-02T10:03:22;6.82;;;5.82;;
79052;SDS011;68451;49.510;6.026;2023-05-02T10:05:49;7.78;;;5.65;;
79052;SDS011;68451;49.510;6.026;2023-05-02T10:08:15;8.77;;;5.88;;
79052;SDS011;68451;49.510;6.026;2023-05-02T10:10:44;8.05;;;4.82;;
79052;SDS011;68451;49.510;6.026;2023-05-02T10:13:21;7.38;;;4.60;;
79052;SDS011;68451;49.510;6.026;2023-05-02T10:15:49;5.40;;;3.67;;
79052;SDS011;68451;49.510;6.026;2023-05-02T10:18:22;6.03;;;4.15;;
79052;SDS011;68451;49.510;6.026;2023-05-02T10:20:57;6.25;;;4.88;;
79052;SDS011;68451;49.510;6.026;2023-05-02T10:23:25;6.40;;;4.55;;
79052;SDS011;68451;49.510;6.026;2023-05-02T10:25:52;9.88;;;4.47;;
79052;SDS011;68451;49.510;6.026;2023-05-02T10:28:19;5.35;;;4.32;;
79052;SDS011;68451;49.510;6.026;2023-05-02T10:30:45;5.63;;;4.05;;
79052;SDS011;68451;49.510;6.026;2023-05-02T10:33:12;7.05;;;5.65;;
79052;SDS011;68451;49.510;6.026;2023-05-02T10:35:38;7.15;;;5.30;;
79052;SDS011;68451;49.510;6.026;2023-05-02T10:38:09;9.82;;;4.55;;
79052;SDS011;68451;49.510;6.026;2023-05-02T10:40:37;6.22;;;4.53;;
79052;SDS011;68451;49.510;6.026;2023-05-02T10:43:04;6.55;;;4.53;;
79052;SDS011;68451;49.510;6.026;2023-05-02T10:45:37;6.97;;;4.93;;
79052;SDS011;68451;49.510;6.026;2023-05-02T10:48:11;6.53;;;5.00;;
79052;SDS011;68451;49.510;6.026;2023-05-02T10:50:44;5.97;;;4.45;;
79052;SDS011;68451;49.510;6.026;2023-05-02T10:59:30;7.18;;;5.25;;
79052;SDS011;68451;49.510;6.026;2023-05-02T11:01:58;6.93;;;5.20;;
79052;SDS011;68451;49.510;6.026;2023-05-02T11:04:24;5.45;;;4.22;;
79052;SDS011;68451;49.510;6.026;2023-05-02T11:09:43;6.93;;;4.38;;
79052;SDS011;68451;49.510;6.026;2023-05-02T11:12:08;9.63;;;5.57;;
79052;SDS011;68451;49.510;6.026;2023-05-02T11:14:41;9.23;;;5.55;;
79052;SDS011;68451;49.510;6.026;2023-05-02T11:17:15;7.85;;;4.85;;
79052;SDS011;68451;49.510;6.026;2023-05-02T11:22:46;8.25;;;5.28;;
79052;SDS011;68451;49.510;6.026;2023-05-02T11:27:53;10.75;;;6.63;;
79052;SDS011;68451;49.510;6.026;2023-05-02T11:30:35;11.13;;;8.48;;
79052;SDS011;68451;49.510;6.026;2023-05-02T11:33:10;8.50;;;5.97;;
79052;SDS011;68451;49.510;6.026;2023-05-02T11:35:40;6.80;;;5.18;;
79052;SDS011;68451;49.510;6.026;2023-05-02T11:38:13;9.52;;;5.95;;
79052;SDS011;68451;49.510;6.026;2023-05-02T11:40:48;7.53;;;6.10;;
79052;SDS011;68451;49.510;6.026;2023-05-02T11:43:16;8.55;;;6.85;;
79052;SDS011;68451;49.510;6.026;2023-05-02T11:45:43;8.57;;;6.70;;
79052;SDS011;68451;49.510;6.026;2023-05-02T11:48:09;9.43;;;6.45;;
79052;SDS011;68451;49.510;6.026;2023-05-02T11:50:46;8.60;;;5.95;;
79052;SDS011;68451;49.510;6.026;2023-05-02T11:53:17;8.68;;;5.50;;
79052;SDS011;68451;49.510;6.026;2023-05-02T11:55:47;7.07;;;5.05;;
79052;SDS011;68451;49.510;6.026;2023-05-02T11:58:16;5.93;;;4.55;;
79052;SDS011;68451;49.510;6.026;2023-05-02T12:00:43;5.82;;;4.50;;
79052;SDS011;68451;49.510;6.026;2023-05-02T12:08:11;5.93;;;5.13;;
79052;SDS011;68451;49.510;6.026;2023-05-02T12:10:43;6.30;;;4.75;;
79052;SDS011;68451;49.510;6.026;2023-05-02T12:13:10;7.18;;;4.88;;
79052;SDS011;68451;49.510;6.026;2023-05-02T12:15:35;5.28;;;4.03;;
79052;SDS011;68451;49.510;6.026;2023-05-02T12:18:01;6.38;;;4.95;;
79052;SDS011;68451;49.510;6.026;2023-05-02T12:20:27;7.13;;;5.25;;
79052;SDS011;68451;49.510;6.026;2023-05-02T12:22:52;6.07;;;3.85;;
79052;SDS011;68451;49.510;6.026;2023-05-02T12:25:19;7.25;;;5.15;;
79052;SDS011;68451;49.510;6.026;2023-05-02T12:30:25;5.35;;;3.58;;
79052;SDS011;68451;49.510;6.026;2023-05-02T12:32:54;5.18;;;3.90;;
79052;SDS011;68451;49.510;6.026;2023-05-02T12:35:22;6.30;;;4.60;;
79052;SDS011;68451;49.510;6.026;2023-05-02T12:37:47;7.13;;;5.25;;
79052;SDS011;68451;49.510;6.026;2023-05-02T12:40:14;6.85;;;5.57;;
79052;SDS011;68451;49.510;6.026;2023-05-02T12:42:41;7.60;;;5.47;;
79052;SDS011;68451;49.510;6.026;2023-05-02T12:45:19;7.10;;;5.65;;
79052;SDS011;68451;49.510;6.026;2023-05-02T12:47:44;9.95;;;6.03;;
79052;SDS011;68451;49.510;6.026;2023-05-02T12:50:13;6.22;;;5.28;;
79052;SDS011;68451;49.510;6.026;2023-05-02T12:52:46;8.52;;;6.22;;
79052;SDS011;68451;49.510;6.026;2023-05-02T12:55:22;6.95;;;5.65;;
79052;SDS011;68451;49.510;6.026;2023-05-02T12:57:49;7.85;;;5.18;;
79052;SDS011;68451;49.510;6.026;2023-05-02T13:00:15;8.85;;;5.13;;
79052;SDS011;68451;49.510;6.026;2023-05-02T13:02:42;7.38;;;4.93;;
79052;SDS011;68451;49.510;6.026;2023-05-02T13:05:17;6.95;;;5.07;;
79052;SDS011;68451;49.510;6.026;2023-05-02T13:07:43;6.20;;;4.05;;
79052;SDS011;68451;49.510;6.026;2023-05-02T13:10:09;6.05;;;4.40;;
79052;SDS011;68451;49.510;6.026;2023-05-02T13:12:36;4.68;;;3.28;;
79052;SDS011;68451;49.510;6.026;2023-05-02T13:15:03;4.50;;;3.28;;
79052;SDS011;68451;49.510;6.026;2023-05-02T13:17:29;3.58;;;2.80;;
79052;SDS011;68451;49.510;6.026;2023-05-02T13:19:55;3.92;;;2.65;;
79052;SDS011;68451;49.510;6.026;2023-05-02T13:22:20;4.03;;;3.13;;
79052;SDS011;68451;49.510;6.026;2023-05-02T13:24:46;4.43;;;2.65;;
79052;SDS011;68451;49.510;6.026;2023-05-02T13:27:11;4.72;;;3.47;;
79052;SDS011;68451;49.510;6.026;2023-05-02T13:29:37;4.35;;;3.00;;
79052;SDS011;68451;49.510;6.026;2023-05-02T13:32:03;4.72;;;2.72;;
79052;SDS011;68451;49.510;6.026;2023-05-02T13:34:29;4.32;;;3.22;;
79052;SDS011;68451;49.510;6.026;2023-05-02T13:36:54;5.18;;;2.75;;
79052;SDS011;68451;49.510;6.026;2023-05-02T13:39:20;4.32;;;2.50;;
79052;SDS011;68451;49.510;6.026;2023-05-02T13:41:46;2.58;;;1.73;;
79052;SDS011;68451;49.510;6.026;2023-05-02T13:44:11;2.70;;;1.90;;
79052;SDS011;68451;49.510;6.026;2023-05-02T13:46:37;1.90;;;1.70;;
79052;SDS011;68451;49.510;6.026;2023-05-02T13:49:03;3.53;;;2.10;;
79052;SDS011;68451;49.510;6.026;2023-05-02T13:51:29;4.15;;;2.05;;
79052;SDS011;68451;49.510;6.026;2023-05-02T13:53:56;2.85;;;1.90;;
79052;SDS011;68451;49.510;6.026;2023-05-02T13:56:22;2.35;;;1.70;;
79052;SDS011;68451;49.510;6.026;2023-05-02T13:58:47;2.47;;;1.45;;
79052;SDS011;68451;49.510;6.026;2023-05-02T14:01:13;1.90;;;1.30;;
79052;SDS011;68451;49.510;6.026;2023-05-02T14:03:39;2.97;;;1.58;;
79052;SDS011;68451;49.510;6.026;2023-05-02T14:06:05;3.03;;;1.98;;
79052;SDS011;68451;49.510;6.026;2023-05-02T14:08:30;2.63;;;2.10;;
79052;SDS011;68451;49.510;6.026;2023-05-02T14:10:56;2.78;;;1.80;;
79052;SDS011;68451;49.510;6.026;2023-05-02T14:13:23;2.45;;;1.85;;
79052;SDS011;68451;49.510;6.026;2023-05-02T14:15:49;3.78;;;1.98;;
79052;SDS011;68451;49.510;6.026;2023-05-02T14:18:15;6.63;;;4.20;;
79052;SDS011;68451;49.510;6.026;2023-05-02T14:20:42;8.15;;;4.45;;
79052;SDS011;68451;49.510;6.026;2023-05-02T14:23:07;5.57;;;4.45;;
79052;SDS011;68451;49.510;6.026;2023-05-02T14:25:34;6.43;;;4.07;;
79052;SDS011;68451;49.510;6.026;2023-05-02T14:28:00;7.90;;;4.45;;
79052;SDS011;68451;49.510;6.026;2023-05-02T14:30:26;6.80;;;4.22;;
79052;SDS011;68451;49.510;6.026;2023-05-02T14:32:52;7.72;;;4.47;;
79052;SDS011;68451;49.510;6.026;2023-05-02T14:35:18;6.38;;;4.05;;
79052;SDS011;68451;49.510;6.026;2023-05-02T14:37:44;7.68;;;4.32;;
79052;SDS011;68451;49.510;6.026;2023-05-02T14:40:11;5.60;;;4.10;;
79052;SDS011;68451;49.510;6.026;2023-05-02T14:42:38;2.70;;;1.73;;
79052;SDS011;68451;49.510;6.026;2023-05-02T14:45:04;2.72;;;1.75;;
79052;SDS011;68451;49.510;6.026;2023-05-02T14:47:30;3.10;;;1.95;;
79052;SDS011;68451;49.510;6.026;2023-05-02T14:49:55;2.72;;;1.42;;
79052;SDS011;68451;49.510;6.026;2023-05-02T14:52:21;2.63;;;1.40;;
79052;SDS011;68451;49.510;6.026;2023-05-02T14:54:47;2.65;;;1.67;;
79052;SDS011;68451;49.510;6.026;2023-05-02T14:57:12;5.80;;;2.03;;
79052;SDS011;68451;49.510;6.026;2023-05-02T14:59:39;5.53;;;2.05;;
79052;SDS011;68451;49.510;6.026;2023-05-02T15:02:05;2.15;;;1.75;;
79052;SDS011;68451;49.510;6.026;2023-05-02T15:04:31;2.38;;;1.77;;
79052;SDS011;68451;49.510;6.026;2023-05-02T15:06:58;2.72;;;2.25;;
79052;SDS011;68451;49.510;6.026;2023-05-02T15:09:24;2.92;;;2.53;;
79052;SDS011;68451;49.510;6.026;2023-05-02T15:11:53;4.18;;;3.03;;
79052;SDS011;68451;49.510;6.026;2023-05-02T15:14:20;5.38;;;3.05;;
79052;SDS011;68451;49.510;6.026;2023-05-02T15:16:45;3.72;;;2.80;;